Time;durP1;ratioP1;P1;durP2;ratioP2;P2;SDS_P1;SDS_P2;PMS_P1;PMS_P2;Temp;Humidity;BMP_temperature;BMP_pressure;BME280_temperature;BME280_humidity;BME280_pressure;Samples;Min_cycle;Max_cycle;Signal;HPM_P1;HPM_P2
2023/01/13 00:02:23;;;;;;;3.20;1.77;;;;;;;3.12;98.80;94978.66;5126675;27;20196;-79
2023/01/13 00:04:50;;;;;;;1.23;0.95;;;;;;;3.14;98.97;94981.88;5112796;28;20198;-80
2023/01/13 00:07:18;;;;;;;2.22;1.40;;;;;;;3.11;99.04;94983.19;5126905;27;20236;-81
2023/01/13 00:09:44;;;;;;;2.45;1.05;;;;;;;3.14;98.74;94982.63;5121190;27;20308;-80
2023/01/13 00:12:11;;;;;;;1.42;1.23;;;;;;;3.11;99.19;94985.06;5132361;27;20205;-79
2023/01/13 00:14:39;;;;;;;3.00;1.63;;;;;;;3.09;99.33;94984.53;5113046;28;20229;-79
2023/01/13 00:17:06;;;;;;;3.20;1.63;;;;;;;3.17;99.70;94986.66;5127279;27;20205;-79
2023/01/13 00:19:33;;;;;;;2.88;1.20;;;;;;;3.12;99.03;94984.00;5121595;27;20224;-79
2023/01/13 00:22:00;;;;;;;1.27;1.15;;;;;;;3.13;99.05;94980.25;5119953;27;20716;-80
2023/01/13 00:24:26;;;;;;;3.55;2.10;;;;;;;3.08;99.04;94985.63;5125208;27;20689;-79
2023/01/13 00:26:53;;;;;;;3.40;2.15;;;;;;;3.13;99.11;94980.25;5127230;27;20875;-80
2023/01/13 00:29:20;;;;;;;5.70;1.25;;;;;;;3.17;98.87;94976.75;5121735;27;20205;-78
2023/01/13 00:31:49;;;;;;;2.30;1.88;;;;;;;3.21;98.33;94977.00;5119811;27;20225;-79
2023/01/13 00:34:15;;;;;;;2.72;1.73;;;;;;;3.27;98.20;94986.63;5132753;27;20314;-79
2023/01/13 00:36:42;;;;;;;3.50;1.92;;;;;;;3.29;98.01;94984.47;5118191;27;20262;-79
2023/01/13 00:39:09;;;;;;;2.13;1.25;;;;;;;3.35;97.84;94983.38;5121909;27;20621;-79
2023/01/13 00:44:16;;;;;;;5.70;3.03;;;;;;;3.31;97.36;94987.69;5131738;27;20269;-78
2023/01/13 00:46:43;;;;;;;1.98;1.33;;;;;;;3.32;97.05;94978.56;5115449;27;20201;-79
2023/01/13 00:49:11;;;;;;;2.17;1.35;;;;;;;3.32;96.93;94977.78;5133856;27;20211;-79
2023/01/13 00:51:38;;;;;;;1.67;1.02;;;;;;;3.17;97.32;94978.63;5143746;27;20255;-79
2023/01/13 00:54:05;;;;;;;4.57;2.00;;;;;;;3.29;97.28;94978.31;5146457;27;20248;-80
2023/01/13 00:56:32;;;;;;;3.40;1.73;;;;;;;3.32;97.01;94970.53;5120272;27;20205;-80
2023/01/13 00:58:58;;;;;;;1.42;1.13;;;;;;;3.20;96.50;94970.06;5125592;27;20274;-79
2023/01/13 01:01:25;;;;;;;1.95;1.45;;;;;;;3.31;96.86;94968.94;5118735;27;20209;-80
2023/01/13 01:03:54;;;;;;;4.60;2.38;;;;;;;3.36;96.27;94973.47;5131553;27;20249;-79
2023/01/13 01:06:23;;;;;;;1.60;0.93;;;;;;;3.34;96.03;94971.06;5117976;27;20212;-80
2023/01/13 01:08:51;;;;;;;3.05;1.48;;;;;;;3.28;96.11;94966.81;5132163;27;20204;-78
2023/01/13 01:11:20;;;;;;;2.78;1.35;;;;;;;3.29;96.26;94967.59;5132922;27;20232;-80
2023/01/13 01:13:47;;;;;;;1.67;1.50;;;;;;;3.29;96.11;94965.72;5117480;27;20668;-80
2023/01/13 01:16:16;;;;;;;2.40;1.27;;;;;;;3.21;96.39;94961.75;5120497;27;20223;-80
2023/01/13 01:18:44;;;;;;;2.28;1.23;;;;;;;3.20;96.88;94964.69;5132685;27;20231;-77
2023/01/13 01:21:12;;;;;;;2.05;1.50;;;;;;;3.17;96.63;94957.22;5122797;27;20230;-78
2023/01/13 01:23:41;;;;;;;3.30;1.58;;;;;;;3.16;96.76;94960.97;5125686;27;20201;-77
2023/01/13 01:26:11;;;;;;;1.90;1.58;;;;;;;3.24;96.67;94957.72;5121635;27;20253;-79
2023/01/13 01:28:38;;;;;;;0.75;0.75;;;;;;;3.21;96.31;94953.72;5118463;27;20640;-78
2023/01/13 01:31:10;;;;;;;0.75;0.75;;;;;;;3.22;96.17;94954.53;5121480;27;20225;-79
2023/01/13 01:33:36;;;;;;;3.88;1.98;;;;;;;3.27;96.19;94949.16;5116075;27;20197;-79
2023/01/13 01:36:04;;;;;;;2.65;1.92;;;;;;;3.19;96.31;94949.72;5119871;27;20202;-79
2023/01/13 01:38:31;;;;;;;3.03;1.40;;;;;;;3.21;95.68;94950.25;5125329;27;20209;-80
2023/01/13 01:40:59;;;;;;;1.67;1.25;;;;;;;3.22;95.83;94946.50;5123202;27;20201;-80
2023/01/13 01:43:58;;;;;;;2.83;1.58;;;;;;;3.29;96.05;94941.63;5112927;27;20288;-79
2023/01/13 01:46:26;;;;;;;13.95;1.25;;;;;;;3.30;95.50;94948.59;5125480;27;20197;-80
2023/01/13 01:48:57;;;;;;;2.13;1.92;;;;;;;3.16;95.93;94936.88;5121448;27;20197;-79
2023/01/13 01:51:24;;;;;;;3.35;1.67;;;;;;;3.23;96.11;94937.41;5131534;27;20232;-79
2023/01/13 01:53:52;;;;;;;1.73;0.90;;;;;;;3.22;95.83;94941.16;5131796;27;20209;-79
2023/01/13 01:56:21;;;;;;;1.23;0.93;;;;;;;3.17;96.24;94933.13;5117387;27;20205;-80
2023/01/13 01:58:51;;;;;;;2.45;1.60;;;;;;;3.20;96.22;94937.94;5122812;27;20204;-80
2023/01/13 02:01:18;;;;;;;1.30;1.20;;;;;;;3.19;96.13;94944.34;5112493;27;20290;-80
2023/01/13 02:03:52;;;;;;;2.65;2.05;;;;;;;3.18;96.12;94945.44;5122630;27;20201;-80
2023/01/13 02:06:19;;;;;;;1.15;0.90;;;;;;;3.16;96.55;94947.56;5145899;27;20200;-80
2023/01/13 02:08:46;;;;;;;1.75;0.95;;;;;;;3.08;96.61;94945.47;5139103;27;20269;-78
2023/01/13 02:14:17;;;;;;;1.67;1.42;;;;;;;3.13;96.66;94937.44;5117390;27;20684;-78
2023/01/13 02:16:54;;;;;;;3.55;1.35;;;;;;;3.14;96.64;94944.41;5119623;27;20665;-79
2023/01/13 02:19:48;;;;;;;1.95;1.67;;;;;;;3.11;96.95;94944.94;5109803;28;20210;-79
2023/01/13 02:22:42;;;;;;;4.90;1.88;;;;;;;3.07;97.03;94935.84;5124048;27;20193;-78
2023/01/13 02:25:33;;;;;;;1.48;1.10;;;;;;;3.11;97.13;94939.59;5109990;28;20638;-79
2023/01/13 02:28:21;;;;;;;1.60;1.42;;;;;;;3.04;97.10;94947.09;5120136;27;20192;-79
2023/01/13 02:33:50;;;;;;;2.20;2.00;;;;;;;2.98;97.45;94935.59;5123835;27;20266;-79
2023/01/13 02:36:26;;;;;;;3.58;1.45;;;;;;;3.00;97.61;94943.38;5121474;27;20196;-79
2023/01/13 02:38:58;;;;;;;1.00;0.90;;;;;;;3.00;97.88;94943.38;5116583;27;20206;-79
2023/01/13 02:44:20;;;;;;;1.08;1.00;;;;;;;3.09;97.44;94942.53;5120168;27;20691;-80
2023/01/13 02:46:53;;;;;;;2.15;1.17;;;;;;;3.11;97.19;94944.94;5130894;27;20185;-78
2023/01/13 02:49:28;;;;;;;2.45;1.60;;;;;;;3.03;97.50;94937.44;5118476;27;20247;-77
2023/01/13 02:52:03;;;;;;;2.00;1.10;;;;;;;3.03;97.39;94942.81;5130787;27;20275;-79
2023/01/13 02:54:34;;;;;;;3.13;2.55;;;;;;;3.03;97.44;94937.44;5130263;27;20188;-77
2023/01/13 02:57:02;;;;;;;3.80;1.83;;;;;;;3.07;97.03;94938.50;5125021;27;20712;-78
2023/01/13 02:59:30;;;;;;;3.53;1.63;;;;;;;3.17;96.66;94943.81;5123687;27;20641;-80
2023/01/13 03:01:59;;;;;;;0.90;0.75;;;;;;;3.05;96.99;94941.47;5109985;28;20198;-79
2023/01/13 03:05:00;;;;;;;1.92;1.73;;;;;;;3.19;96.98;94936.34;5123755;27;20259;-78
2023/01/13 03:07:58;;;;;;;3.22;1.75;;;;;;;3.21;96.60;94939.53;5040009;28;20207;-80
2023/01/13 03:10:43;;;;;;;2.65;1.20;;;;;;;3.20;96.47;94937.94;5038527;28;20246;-80
2023/01/13 03:13:21;;;;;;;2.53;1.48;;;;;;;3.15;96.44;94938.75;5104831;27;20208;-79
2023/01/13 03:15:54;;;;;;;3.08;1.83;;;;;;;3.15;96.75;94929.91;5112431;27;20219;-79
2023/01/13 03:18:34;;;;;;;3.20;1.70;;;;;;;3.04;97.00;94933.69;5121853;27;20213;-80
2023/01/13 03:21:07;;;;;;;3.40;1.63;;;;;;;3.16;96.46;94935.00;5116768;28;20250;-80
2023/01/13 03:23:40;;;;;;;2.30;1.75;;;;;;;3.16;96.60;94931.50;5114847;28;20657;-79
2023/01/13 03:26:13;;;;;;;1.25;1.00;;;;;;;3.17;96.68;94933.13;5119015;28;20249;-80
2023/01/13 03:28:44;;;;;;;2.80;1.38;;;;;;;3.35;96.37;94945.91;5126783;28;20242;-80
2023/01/13 03:31:16;;;;;;;1.30;1.13;;;;;;;3.20;96.13;94954.78;5121346;27;20277;-80
2023/01/13 03:33:48;;;;;;;2.10;1.58;;;;;;;3.21;95.84;94929.63;5130063;27;20197;-81
2023/01/13 03:36:17;;;;;;;4.65;1.33;;;;;;;3.32;96.06;94946.44;5126191;27;20644;-80
2023/01/13 03:38:50;;;;;;;1.98;1.60;;;;;;;3.20;96.00;94937.94;5120692;27;20197;-78
2023/01/13 03:41:23;;;;;;;1.77;1.10;;;;;;;3.29;95.93;94947.00;5119907;27;20213;-80
2023/01/13 03:46:45;;;;;;;3.40;1.90;;;;;;;3.34;95.81;94956.88;5126699;27;20200;-80
2023/01/13 03:49:18;;;;;;;1.30;1.02;;;;;;;3.33;95.51;94958.75;5126182;27;20193;-79
2023/01/13 03:51:52;;;;;;;1.77;1.20;;;;;;;3.31;95.48;94955.56;5112876;28;20860;-79
2023/01/13 03:54:21;;;;;;;1.20;1.02;;;;;;;3.30;95.76;94953.94;5127257;27;20196;-79
2023/01/13 03:56:52;;;;;;;2.13;1.23;;;;;;;3.38;95.59;94945.38;5118056;27;20242;-79
2023/01/13 03:59:24;;;;;;;2.22;1.75;;;;;;;3.29;95.43;94948.88;5126917;27;20197;-79
2023/01/13 04:01:57;;;;;;;0.85;0.80;;;;;;;3.27;95.59;94949.16;5125531;27;20193;-78
2023/01/13 04:04:29;;;;;;;1.77;1.65;;;;;;;3.47;95.19;94949.06;5116388;27;20258;-79
2023/01/13 04:07:04;;;;;;;2.88;1.33;;;;;;;3.37;95.01;94951.78;5125027;27;20193;-81
2023/01/13 04:09:39;;;;;;;1.95;1.38;;;;;;;3.43;95.08;94948.00;5119587;27;20201;-80
2023/01/13 04:12:12;;;;;;;2.13;1.10;;;;;;;3.40;95.14;94958.47;5132380;27;20224;-79
2023/01/13 04:14:40;;;;;;;1.50;1.33;;;;;;;3.34;95.27;94949.66;5121339;27;20197;-79
2023/01/13 04:17:07;;;;;;;1.27;1.05;;;;;;;3.34;94.73;94956.88;5119148;27;20233;-78
2023/01/13 04:19:35;;;;;;;1.48;1.10;;;;;;;3.36;95.03;94952.06;5124185;27;20221;-79
2023/01/13 04:22:02;;;;;;;1.35;1.25;;;;;;;3.25;95.42;94961.22;5126438;27;20194;-79
2023/01/13 04:24:29;;;;;;;2.60;1.80;;;;;;;3.19;96.01;94963.91;5121745;27;20254;-79
2023/01/13 04:26:56;;;;;;;0.60;0.60;;;;;;;3.27;95.77;94967.09;5119868;27;20325;-79
2023/01/13 04:29:23;;;;;;;2.58;1.73;;;;;;;3.35;95.48;94961.97;5123756;27;20209;-79
2023/01/13 04:31:53;;;;;;;2.28;1.58;;;;;;;3.09;95.90;94963.94;5126264;27;20286;-80
2023/01/13 04:34:19;;;;;;;1.50;0.90;;;;;;;3.52;99.34;94957.09;5122567;27;20200;-74
2023/01/13 04:36:47;;;;;;;1.08;0.98;;;;;;;4.17;100.00;94957.78;5118862;27;20201;-74
2023/01/13 04:39:14;;;;;;;0.80;0.80;;;;;;;3.66;97.28;94956.47;5122743;27;20197;-80
2023/01/13 04:42:01;;;;;;;5.15;2.10;;;;;;;3.40;96.11;94964.63;5128996;27;20216;-79
2023/01/13 04:44:29;;;;;;;1.75;1.13;;;;;;;3.22;96.59;94965.22;5120229;27;20202;-80
2023/01/13 04:46:56;;;;;;;1.45;1.08;;;;;;;3.20;96.93;94970.06;5112553;28;20193;-79
2023/01/13 04:49:24;;;;;;;1.00;0.95;;;;;;;3.14;96.54;94965.81;5112124;27;20977;-79
2023/01/13 04:51:52;;;;;;;2.42;1.48;;;;;;;3.20;96.92;94976.22;5132579;27;20293;-79
2023/01/13 04:54:19;;;;;;;2.63;1.52;;;;;;;3.24;96.65;94979.16;5118811;27;20206;-78
2023/01/13 04:56:46;;;;;;;2.35;1.23;;;;;;;3.30;96.22;94970.00;5128944;27;20193;-78
2023/01/13 04:59:13;;;;;;;2.50;1.80;;;;;;;3.41;96.30;94960.88;5125421;27;20197;-79
2023/01/13 05:01:40;;;;;;;2.42;1.63;;;;;;;3.55;95.91;94977.16;5120715;27;20209;-78
2023/01/13 05:04:08;;;;;;;2.03;1.40;;;;;;;3.41;95.67;94970.78;5133071;27;20204;-80
2023/01/13 05:06:35;;;;;;;3.55;1.80;;;;;;;3.42;95.74;94972.38;5123000;27;20258;-78
2023/01/13 05:09:03;;;;;;;1.58;1.15;;;;;;;3.46;95.72;94974.25;5119039;27;20190;-79
2023/01/13 05:17:00;;;;;;;4.05;1.38;;;;;;;3.26;95.97;94968.97;5125720;27;20235;-79
2023/01/13 05:19:28;;;;;;;2.00;1.17;;;;;;;3.40;95.99;94977.22;5112978;27;20218;-78
2023/01/13 05:27:25;;;;;;;1.75;0.82;;;;;;;3.41;95.56;94976.16;5111902;28;20193;-79
2023/01/13 05:29:52;;;;;;;4.38;1.95;;;;;;;3.33;95.42;94980.19;5125580;27;20566;-78
2023/01/13 05:32:19;;;;;;;2.25;1.15;;;;;;;3.25;96.11;94986.09;5119645;27;20596;-78
2023/01/13 05:34:46;;;;;;;3.40;1.98;;;;;;;3.20;96.40;94981.56;5117481;27;20703;-79
2023/01/13 05:37:12;;;;;;;2.60;1.73;;;;;;;3.33;96.39;94984.72;5124595;27;20266;-79
2023/01/13 05:45:11;;;;;;;3.97;2.03;;;;;;;3.16;96.75;94977.81;5118561;27;20191;-79
2023/01/13 05:47:38;;;;;;;1.88;1.42;;;;;;;3.19;97.18;94984.50;5118910;27;20221;-80
2023/01/13 05:50:05;;;;;;;4.38;3.60;;;;;;;3.15;97.21;94980.75;5131613;27;20213;-79
2023/01/13 05:52:32;;;;;;;2.10;1.45;;;;;;;3.08;97.51;94972.22;5131848;27;20245;-80
2023/01/13 05:55:00;;;;;;;1.88;1.48;;;;;;;3.06;98.21;94990.44;5130965;27;20197;-79
2023/01/13 05:57:27;;;;;;;3.22;1.98;;;;;;;3.00;98.67;94996.88;5127703;27;20742;-80
2023/01/13 05:59:54;;;;;;;3.22;2.17;;;;;;;3.07;98.51;95000.88;5117816;27;20216;-79
2023/01/13 06:02:25;;;;;;;5.65;2.58;;;;;;;3.09;98.40;94992.56;5118346;27;20254;-81
2023/01/13 06:04:55;;;;;;;4.05;2.17;;;;;;;3.06;99.06;95009.16;5118829;27;20197;-78
2023/01/13 06:07:21;;;;;;;2.08;1.95;;;;;;;3.10;98.36;95004.88;5118279;27;20205;-79
2023/01/13 06:09:48;;;;;;;3.15;1.67;;;;;;;3.06;98.70;95011.84;5123805;27;20215;-79
2023/01/13 06:12:24;;;;;;;5.43;2.13;;;;;;;3.06;99.11;94995.78;5125571;27;20225;-79
2023/01/13 06:14:52;;;;;;;2.90;2.00;;;;;;;3.11;98.71;95003.81;5121469;27;20200;-80
2023/01/13 06:17:20;;;;;;;18.80;2.65;;;;;;;3.13;98.90;95012.38;5116390;27;20205;-80
2023/01/13 06:19:47;;;;;;;2.53;1.83;;;;;;;3.09;98.78;95016.66;5121140;27;20206;-78
2023/01/13 06:22:16;;;;;;;2.38;1.70;;;;;;;3.03;99.01;95020.41;5114884;27;20628;-78
2023/01/13 06:24:44;;;;;;;8.80;2.45;;;;;;;3.08;99.06;95023.88;5131409;27;20197;-78
2023/01/13 06:27:16;;;;;;;4.80;1.45;;;;;;;3.06;99.09;95019.88;5127434;27;20201;-79
2023/01/13 06:29:43;;;;;;;8.10;2.95;;;;;;;3.09;99.10;95022.00;5122817;27;20264;-79
2023/01/13 06:32:16;;;;;;;3.08;2.15;;;;;;;3.25;98.69;95018.22;5126344;27;20270;-79
2023/01/13 06:34:48;;;;;;;4.63;3.13;;;;;;;3.43;97.86;95022.16;5123495;27;20192;-79
2023/01/13 06:37:18;;;;;;;4.95;2.17;;;;;;;3.40;97.40;95012.84;5120094;27;20673;-80
2023/01/13 06:39:46;;;;;;;5.40;2.45;;;;;;;3.34;97.26;95013.91;5131071;27;20615;-79
2023/01/13 06:45:00;;;;;;;3.38;2.03;;;;;;;3.36;97.40;95017.13;5113841;27;20196;-79
2023/01/13 06:47:27;;;;;;;2.40;1.77;;;;;;;3.39;97.52;95018.47;5120659;27;20352;-80
2023/01/13 06:49:53;;;;;;;4.18;2.45;;;;;;;3.44;97.48;95019.22;5117824;27;20212;-80
2023/01/13 06:52:20;;;;;;;5.43;2.08;;;;;;;3.46;96.91;95021.63;5131655;27;20301;-79
2023/01/13 06:54:47;;;;;;;4.75;2.72;;;;;;;3.48;96.74;95019.50;5112267;27;20197;-80
2023/01/13 06:57:14;;;;;;;2.80;1.85;;;;;;;3.46;96.72;95017.09;5114956;27;20201;-78
2023/01/13 06:59:40;;;;;;;2.95;1.80;;;;;;;3.52;96.60;95010.66;5115942;27;20246;-78
2023/01/13 07:02:08;;;;;;;6.82;3.33;;;;;;;3.64;96.29;95017.56;5119940;27;20209;-77
2023/01/13 07:04:35;;;;;;;4.25;2.95;;;;;;;3.55;96.13;95020.78;5134868;27;20189;-79
2023/01/13 07:07:02;;;;;;;6.35;3.15;;;;;;;3.70;95.88;95009.22;5134666;27;20242;-78
2023/01/13 07:09:29;;;;;;;2.50;1.98;;;;;;;3.58;96.00;95020.25;5117389;28;20664;-78
2023/01/13 07:11:55;;;;;;;4.53;3.08;;;;;;;3.77;95.80;95019.66;5130222;27;20224;-79
2023/01/13 07:17:08;;;;;;;3.83;1.75;;;;;;;3.76;94.92;95012.69;5118801;27;20196;-79
2023/01/13 07:19:34;;;;;;;4.95;2.90;;;;;;;3.76;94.96;95010.81;5121293;28;20351;-78
2023/01/13 07:22:01;;;;;;;2.55;1.38;;;;;;;3.92;94.60;95016.91;5114928;28;20198;-78
2023/01/13 07:24:28;;;;;;;3.63;2.47;;;;;;;3.85;94.65;95008.34;5118772;28;20193;-79
2023/01/13 07:26:55;;;;;;;2.33;1.63;;;;;;;3.67;94.97;95011.66;5117139;28;20317;-78
2023/01/13 07:29:22;;;;;;;3.67;1.95;;;;;;;3.96;94.65;95001.88;5133933;28;20643;-79
2023/01/13 07:31:48;;;;;;;5.38;2.22;;;;;;;4.23;93.16;95004.94;5130919;28;20734;-79
2023/01/13 07:34:17;;;;;;;5.13;3.03;;;;;;;4.21;92.32;95001.72;5121292;28;20206;-80
2023/01/13 07:36:45;;;;;;;5.28;3.25;;;;;;;4.29;91.91;94993.06;5125095;28;20197;-82
2023/01/13 07:39:11;;;;;;;5.38;2.70;;;;;;;4.35;91.37;95001.09;5110730;28;20608;-81
2023/01/13 07:44:22;;;;;;;4.00;3.10;;;;;;;4.65;90.68;94992.78;5121957;28;20242;-80
2023/01/13 07:46:49;;;;;;;3.58;2.33;;;;;;;4.56;89.83;94997.16;5128260;28;20590;-79
2023/01/13 07:49:17;;;;;;;2.97;2.17;;;;;;;4.74;89.07;95004.53;5118412;28;20274;-79
2023/01/13 07:51:44;;;;;;;4.78;2.65;;;;;;;4.83;88.87;95005.53;5129767;28;20728;-79
2023/01/13 07:54:11;;;;;;;2.72;1.95;;;;;;;5.21;87.99;95013.75;5116823;28;20783;-80
2023/01/13 07:56:37;;;;;;;4.88;2.55;;;;;;;5.42;86.30;94999.03;5112058;28;20198;-79
2023/01/13 07:59:04;;;;;;;0.40;0.40;;;;;;;5.40;85.13;95006.56;5116783;28;20250;-78
2023/01/13 08:01:31;;;;;;;4.95;2.30;;;;;;;4.92;87.33;95011.88;5116258;28;20728;-79
2023/01/13 08:03:58;;;;;;;2.85;2.50;;;;;;;5.13;87.06;95012.50;5116779;28;20292;-79
2023/01/13 08:06:27;;;;;;;3.45;2.08;;;;;;;5.40;86.26;95005.78;5123430;28;20213;-79
2023/01/13 08:08:54;;;;;;;2.95;1.70;;;;;;;5.58;85.00;95008.53;5124638;28;20201;-79
2023/01/13 08:11:21;;;;;;;6.75;2.97;;;;;;;5.96;84.00;95014.00;5121952;28;20664;-79
2023/01/13 08:13:48;;;;;;;5.07;2.92;;;;;;;5.93;83.31;95019.97;5122787;28;20632;-80
2023/01/13 08:16:15;;;;;;;4.85;2.35;;;;;;;5.72;83.12;95020.19;5117635;27;20209;-79
2023/01/13 08:18:42;;;;;;;5.28;2.70;;;;;;;5.61;83.55;95018.69;5133263;27;20217;-78
2023/01/13 08:21:11;;;;;;;2.55;2.28;;;;;;;5.23;84.74;95011.59;5133554;27;20632;-79
2023/01/13 08:23:40;;;;;;;5.20;3.28;;;;;;;5.40;84.82;95006.56;5120512;27;20292;-80
2023/01/13 08:26:09;;;;;;;4.80;2.92;;;;;;;5.67;84.02;95011.38;5125371;27;20206;-80
2023/01/13 08:28:36;;;;;;;2.83;2.03;;;;;;;6.36;82.57;95008.06;5129486;27;20201;-80
2023/01/13 08:31:06;;;;;;;6.88;3.85;;;;;;;6.55;80.31;95004.56;5124218;27;20609;-79
2023/01/13 08:33:33;;;;;;;4.68;2.63;;;;;;;6.67;79.40;95003.03;5126603;27;20233;-80
2023/01/13 08:36:04;;;;;;;7.30;2.90;;;;;;;6.71;79.14;95003.22;5123643;27;20217;-80
2023/01/13 08:38:31;;;;;;;5.13;3.42;;;;;;;6.95;79.18;95006.63;5129413;27;20346;-80
2023/01/13 08:40:59;;;;;;;14.80;3.33;;;;;;;6.87;78.73;94995.69;5123977;27;20718;-80
2023/01/13 08:43:27;;;;;;;5.20;2.72;;;;;;;7.17;77.78;94995.19;5133986;27;20281;-80
2023/01/13 08:45:58;;;;;;;7.63;3.08;;;;;;;7.04;77.30;95002.13;5121866;27;20709;-80
2023/01/13 08:48:29;;;;;;;4.95;3.03;;;;;;;7.12;76.63;94998.75;5128518;27;20277;-80
2023/01/13 08:51:02;;;;;;;4.80;2.95;;;;;;;6.55;78.43;94996.50;5126594;27;20197;-79
2023/01/13 08:53:29;;;;;;;3.50;2.50;;;;;;;6.76;78.64;94989.69;5120615;27;20824;-80
2023/01/13 08:55:56;;;;;;;5.85;2.45;;;;;;;6.90;77.88;94998.59;5119796;27;20665;-80
2023/01/13 08:58:24;;;;;;;5.18;3.10;;;;;;;7.24;76.90;94992.13;5124183;27;20311;-81
2023/01/13 09:00:51;;;;;;;3.53;1.60;;;;;;;7.29;76.19;94986.59;5119437;27;20715;-79
2023/01/13 09:03:17;;;;;;;2.17;1.70;;;;;;;6.84;77.66;94997.09;5125497;27;20212;-77
2023/01/13 09:05:44;;;;;;;3.95;2.60;;;;;;;7.05;76.55;94997.56;5126610;27;20261;-79
2023/01/13 09:08:14;;;;;;;5.10;2.97;;;;;;;7.35;76.40;94998.91;5120879;27;20250;-79
2023/01/13 09:10:41;;;;;;;4.65;2.42;;;;;;;7.60;75.50;94990.34;5119549;27;20410;-79
2023/01/13 09:13:11;;;;;;;2.05;1.10;;;;;;;6.86;75.64;94994.09;5124486;27;20225;-78
2023/01/13 09:15:41;;;;;;;4.88;2.60;;;;;;;6.92;76.64;94993.72;5126306;27;20238;-79
2023/01/13 09:18:08;;;;;;;3.95;2.38;;;;;;;6.91;76.94;94989.44;5112411;28;20576;-79
2023/01/13 09:20:35;;;;;;;2.72;2.22;;;;;;;7.15;76.37;94981.19;5125567;27;20236;-79
2023/01/13 09:23:02;;;;;;;6.80;2.78;;;;;;;7.09;75.83;94988.59;5121821;27;20601;-79
2023/01/13 09:25:28;;;;;;;4.80;3.08;;;;;;;7.10;76.08;94984.00;5116102;27;20688;-80
2023/01/13 09:27:56;;;;;;;4.03;1.45;;;;;;;6.72;76.52;94988.66;5121578;27;20660;-78
2023/01/13 09:30:23;;;;;;;5.40;2.90;;;;;;;6.70;77.38;94982.78;5118883;27;20211;-80
2023/01/13 09:34:58;;;;;;;5.70;2.08;;;;;;;6.36;77.47;94985.75;5122509;27;20221;-77
2023/01/13 09:35:38;;;;;;;1.92;1.20;;;;;;;6.39;78.02;94974.41;5125726;27;20278;-79
2023/01/13 09:38:06;;;;;;;0.60;0.60;;;;;;;6.26;78.35;94981.31;5124948;27;20324;-80
2023/01/13 09:40:32;;;;;;;2.55;1.92;;;;;;;6.67;78.63;94980.69;5125552;27;20285;-81
2023/01/13 09:45:56;;;;;;;2.42;1.70;;;;;;;6.68;77.39;94985.00;5121984;27;20200;-79
2023/01/13 09:48:29;;;;;;;5.13;2.53;;;;;;;6.73;77.05;94984.88;5128703;27;20189;-80
2023/01/13 09:51:02;;;;;;;2.75;1.70;;;;;;;6.97;76.40;94980.16;5125641;27;20192;-80
2023/01/13 09:53:34;;;;;;;1.40;1.25;;;;;;;6.48;75.94;94982.59;5118702;27;20270;-77
2023/01/13 09:56:00;;;;;;;1.80;1.23;;;;;;;6.32;77.22;94969.38;5130921;27;20243;-81
2023/01/13 09:58:27;;;;;;;0.57;0.57;;;;;;;6.78;76.22;94979.44;5121397;27;20256;-81
2023/01/13 10:01:19;;;;;;;2.22;2.03;;;;;;;7.01;76.62;94972.28;5125560;27;20200;-80
2023/01/13 10:03:48;;;;;;;2.88;1.77;;;;;;;7.18;75.71;94974.44;5124239;27;20189;-80
2023/01/13 10:06:20;;;;;;;1.10;0.82;;;;;;;7.15;75.14;94970.44;5119555;27;20269;-80
2023/01/13 10:08:48;;;;;;;2.88;1.80;;;;;;;7.59;74.45;94969.06;5120056;27;20710;-82
2023/01/13 10:14:10;;;;;;;3.80;1.67;;;;;;;7.02;75.51;94965.81;5119931;27;20220;-81
2023/01/13 10:16:44;;;;;;;1.92;1.30;;;;;;;7.22;74.79;94975.44;5120936;27;20720;-81
2023/01/13 10:19:18;;;;;;;0.82;0.50;;;;;;;6.57;75.79;94967.38;5126489;27;20197;-80
2023/01/13 10:22:14;;;;;;;1.90;1.20;;;;;;;6.55;76.51;94972.28;5124019;27;20256;-81
2023/01/13 10:25:08;;;;;;;2.30;1.40;;;;;;;6.86;75.91;94962.59;5121270;27;20266;-82
2023/01/13 10:27:37;;;;;;;2.38;1.42;;;;;;;6.38;76.43;94962.84;5119327;27;20237;-80
2023/01/13 10:30:12;;;;;;;1.85;1.33;;;;;;;6.35;77.42;94960.72;5130181;27;20204;-81
2023/01/13 10:32:43;;;;;;;1.92;1.10;;;;;;;6.59;76.90;94959.81;5121017;27;20208;-79
2023/01/13 10:35:11;;;;;;;2.30;1.30;;;;;;;6.38;76.98;94956.66;5118589;27;20189;-81
2023/01/13 10:37:38;;;;;;;0.55;0.55;;;;;;;6.10;76.84;94963.00;5121689;27;20198;-80
2023/01/13 10:40:16;;;;;;;0.82;0.82;;;;;;;5.93;78.24;94956.22;5128568;27;20577;-79
2023/01/13 10:42:42;;;;;;;0.35;0.35;;;;;;;5.98;77.54;94958.06;5119793;27;20193;-79
2023/01/13 10:45:24;;;;;;;2.25;0.57;;;;;;;6.08;77.85;94955.22;5124857;27;20653;-82
2023/01/13 10:48:08;;;;;;;3.53;0.50;;;;;;;6.25;76.32;94942.06;5125736;27;20623;-80
2023/01/13 10:50:38;;;;;;;2.55;1.45;;;;;;;6.28;77.38;94946.88;5132499;27;20882;-81
2023/01/13 10:53:18;;;;;;;0.60;0.60;;;;;;;6.39;76.45;94942.91;5113344;27;20282;-81
2023/01/13 10:56:00;;;;;;;1.00;0.90;;;;;;;6.62;76.59;94940.38;5122804;27;20645;-82
2023/01/13 10:58:27;;;;;;;1.50;1.10;;;;;;;6.91;74.80;94938.28;5120490;27;20197;-82
2023/01/13 11:01:03;;;;;;;5.30;1.50;;;;;;;7.05;74.07;94939.09;5126341;27;20197;-81
2023/01/13 11:03:43;;;;;;;3.55;1.75;;;;;;;7.12;74.23;94939.50;5121068;27;20200;-82
2023/01/13 11:06:22;;;;;;;3.28;2.17;;;;;;;7.28;74.29;94947.28;5126219;27;20224;-82
2023/01/13 11:08:53;;;;;;;3.28;1.85;;;;;;;7.05;73.52;94936.41;5124327;27;20200;-81
2023/01/13 11:11:43;;;;;;;1.63;1.30;;;;;;;6.73;74.69;94941.81;5118529;27;20189;-82
2023/01/13 11:17:27;;;;;;;1.25;0.93;;;;;;;6.90;75.53;94930.50;5123882;27;20235;-82
2023/01/13 11:20:00;;;;;;;1.42;0.90;;;;;;;6.68;75.96;94928.47;5122289;27;20256;-81
2023/01/13 11:22:33;;;;;;;4.35;1.30;;;;;;;6.86;75.57;94926.78;5125760;28;20186;-81
2023/01/13 11:25:02;;;;;;;1.77;1.30;;;;;;;6.85;75.64;94922.50;5124629;28;20632;-82
2023/01/13 11:27:40;;;;;;;2.72;1.33;;;;;;;7.32;74.64;94915.97;5116938;28;20197;-81
2023/01/13 11:30:23;;;;;;;1.90;1.17;;;;;;;7.56;74.22;94916.53;5125274;28;20236;-83
2023/01/13 11:33:06;;;;;;;2.08;1.13;;;;;;;7.37;74.48;94918.56;5122928;28;20199;-83
2023/01/13 11:35:40;;;;;;;4.18;1.40;;;;;;;7.58;73.38;94919.75;5126449;28;20235;-82
2023/01/13 11:38:14;;;;;;;2.80;1.52;;;;;;;7.78;72.45;94913.13;5127092;28;20189;-83
2023/01/13 11:40:45;;;;;;;6.93;1.92;;;;;;;7.95;71.60;94913.28;5121560;28;20201;-83
2023/01/13 11:43:18;;;;;;;3.85;1.52;;;;;;;7.66;72.65;94910.94;5122258;28;20259;-83
2023/01/13 11:45:49;;;;;;;6.10;2.58;;;;;;;7.99;71.84;94902.69;5120439;28;20281;-83
2023/01/13 11:48:19;;;;;;;2.85;1.85;;;;;;;7.84;70.87;94910.00;5124894;28;20812;-83
2023/01/13 11:50:52;;;;;;;3.10;1.60;;;;;;;7.56;72.79;94911.16;5123311;28;20242;-82
2023/01/13 11:53:44;;;;;;;3.42;1.58;;;;;;;7.41;73.86;94908.75;5120074;27;20216;-82
2023/01/13 11:56:28;;;;;;;1.88;1.27;;;;;;;7.40;73.70;94907.16;5135562;27;20201;-83
2023/01/13 11:59:22;;;;;;;1.60;1.30;;;;;;;7.73;72.90;94899.75;5122317;27;20246;-83
2023/01/13 12:02:03;;;;;;;3.67;2.30;;;;;;;7.59;73.06;94904.38;5123047;27;20250;-82
2023/01/13 12:04:41;;;;;;;2.40;1.50;;;;;;;7.73;72.70;94900.56;5116824;27;20197;-83
2023/01/13 12:07:18;;;;;;;3.25;1.77;;;;;;;7.97;72.60;94894.09;5127105;27;20266;-83
2023/01/13 12:10:00;;;;;;;3.60;2.67;;;;;;;8.02;71.89;94885.91;5122232;27;20214;-83
2023/01/13 12:12:40;;;;;;;4.93;2.15;;;;;;;7.72;71.89;94890.06;5134393;27;20257;-82
2023/01/13 12:15:36;;;;;;;6.13;1.83;;;;;;;7.46;72.69;94895.19;5123179;27;20729;-82
2023/01/13 12:18:18;;;;;;;2.20;1.35;;;;;;;7.30;73.87;94896.59;5123797;27;20277;-83
2023/01/13 12:20:57;;;;;;;4.13;2.38;;;;;;;7.15;74.36;94900.38;5120790;27;20695;-83
2023/01/13 12:23:30;;;;;;;5.80;3.45;;;;;;;7.10;75.11;94890.53;5121416;27;20657;-82
2023/01/13 12:26:04;;;;;;;7.40;3.65;;;;;;;7.07;75.42;94893.81;5114948;28;20640;-82
2023/01/13 12:28:42;;;;;;;8.27;3.50;;;;;;;7.06;76.34;94903.00;5128090;27;20252;-83
2023/01/13 12:31:09;;;;;;;2.85;1.90;;;;;;;6.73;77.19;94893.34;5124532;27;20706;-83
2023/01/13 12:33:51;;;;;;;4.95;2.50;;;;;;;6.82;77.63;94894.28;5127596;27;20223;-83
2023/01/13 12:36:28;;;;;;;6.28;2.13;;;;;;;6.85;77.67;94890.97;5114862;28;20186;-83
2023/01/13 12:38:58;;;;;;;2.33;1.60;;;;;;;6.53;78.88;94899.91;5122235;27;20253;-81
2023/01/13 12:44:15;;;;;;;3.47;2.75;;;;;;;6.67;78.14;94895.34;5121008;27;20281;-82
2023/01/13 12:44:28;;;;;;;15.65;2.72;;;;;;;6.90;77.35;94898.97;5121542;27;20255;-84
2023/01/13 12:46:56;;;;;;;9.95;4.40;;;;;;;7.20;76.89;94888.72;5122112;27;20220;-83
2023/01/13 12:49:25;;;;;;;6.47;2.83;;;;;;;7.24;76.46;94909.38;5121717;27;20581;-84